createdAt,value
2023-04-30T00:00:50.311Z,79.44
2023-04-30T00:01:51.473Z,79.24
2023-04-30T00:02:50.362Z,79.64
2023-04-30T00:03:50.435Z,79.95
2023-04-30T00:04:50.357Z,78.53
2023-04-30T00:05:51.144Z,78.22
2023-04-30T00:06:50.397Z,78.83
2023-04-30T00:07:50.102Z,78.22
2023-04-30T00:08:50.362Z,77.71
2023-04-30T00:09:51.213Z,79.14
2023-04-30T00:10:51.311Z,79.24
2023-04-30T00:11:50.231Z,79.48
2023-04-30T00:12:50.395Z,80.50
2023-04-30T00:13:50.115Z,80.56
2023-04-30T00:14:51.251Z,80.46
2023-04-30T00:15:51.187Z,79.99
2023-04-30T00:16:50.514Z,80.19
2023-04-30T00:17:50.143Z,80.60
2023-04-30T00:18:50.264Z,80.94
2023-04-30T00:19:50.246Z,81.04
2023-04-30T00:20:50.982Z,81.45
2023-04-30T00:21:50.225Z,80.98
2023-04-30T00:22:50.004Z,81.70
2023-04-30T00:23:50.211Z,81.70
2023-04-30T00:24:49.993Z,81.90
2023-04-30T00:25:51.132Z,82.31
2023-04-30T00:26:50.043Z,82.51
2023-04-30T00:27:50.245Z,82.68
2023-04-30T00:28:51.002Z,82.27
2023-04-30T00:29:50.070Z,81.86
2023-04-30T00:30:49.961Z,81.25
2023-04-30T00:31:50.080Z,82.17
2023-04-30T00:32:51.038Z,82.07
2023-04-30T00:33:50.062Z,81.45
2023-04-30T00:34:50.000Z,81.86
2023-04-30T00:35:49.835Z,80.64
2023-04-30T00:36:50.001Z,81.56
2023-04-30T00:37:49.878Z,81.96
2023-04-30T00:38:51.001Z,82.68
2023-04-30T00:39:49.791Z,82.57
2023-04-30T00:40:49.980Z,82.07
2023-04-30T00:41:49.829Z,81.39
2023-04-30T00:42:50.042Z,82.41
2023-04-30T00:43:49.812Z,82.82
2023-04-30T00:44:50.962Z,82.00
2023-04-30T00:45:49.846Z,83.33
2023-04-30T00:46:49.929Z,82.82
2023-04-30T00:47:49.913Z,82.41
2023-04-30T00:48:49.912Z,82.82
2023-04-30T00:49:49.931Z,82.82
2023-04-30T00:50:50.921Z,82.00
2023-04-30T00:51:49.831Z,82.82
2023-04-30T00:52:50.727Z,82.92
2023-04-30T00:53:49.789Z,83.02
2023-04-30T00:54:50.970Z,82.51
2023-04-30T00:55:49.793Z,83.33
2023-04-30T00:56:49.702Z,82.61
2023-04-30T00:57:50.828Z,82.96
2023-04-30T00:58:49.747Z,82.86
2023-04-30T00:59:49.790Z,82.24
2023-04-30T01:00:50.728Z,83.16
2023-04-30T01:01:50.769Z,82.65
2023-04-30T01:02:49.807Z,83.67
2023-04-30T01:03:50.246Z,83.26
2023-04-30T01:04:50.720Z,83.06
2023-04-30T01:05:49.759Z,83.26
2023-04-30T01:06:50.641Z,83.87
2023-04-30T01:07:49.499Z,83.26
2023-04-30T01:08:50.712Z,82.96
2023-04-30T01:09:49.478Z,82.86
2023-04-30T01:10:50.733Z,82.04
2023-04-30T01:11:49.508Z,81.67
2023-04-30T01:12:50.706Z,83.20
2023-04-30T01:13:49.701Z,84.01
2023-04-30T01:14:50.661Z,82.39
2023-04-30T01:15:49.533Z,82.01
2023-04-30T01:16:50.587Z,82.69
2023-04-30T01:17:49.581Z,83.30
2023-04-30T01:18:49.742Z,83.00
2023-04-30T01:19:49.527Z,82.89
2023-04-30T01:20:50.614Z,82.18
2023-04-30T01:21:49.517Z,82.32
2023-04-30T01:22:49.359Z,82.89
2023-04-30T01:23:49.563Z,82.22
2023-04-30T01:24:50.400Z,81.40
2023-04-30T01:25:50.517Z,83.54
2023-04-30T01:26:49.437Z,83.14
2023-04-30T01:27:50.538Z,82.59
2023-04-30T01:28:50.448Z,84.22
2023-04-30T01:29:49.546Z,83.10
2023-04-30T01:30:50.398Z,82.08
2023-04-30T01:31:50.640Z,83.20
2023-04-30T01:32:50.506Z,83.00
2023-04-30T01:33:50.509Z,82.59
2023-04-30T01:34:50.406Z,83.10
2023-04-30T01:35:50.448Z,82.86
2023-04-30T01:36:49.329Z,82.45
2023-04-30T01:37:49.247Z,83.06
2023-04-30T01:38:49.451Z,81.57
2023-04-30T01:39:50.284Z,82.08
2023-04-30T01:40:49.334Z,80.96
2023-04-30T01:41:50.168Z,81.46
2023-04-30T01:42:50.331Z,81.30
2023-04-30T01:43:49.184Z,82.63
2023-04-30T01:44:49.332Z,82.01
2023-04-30T01:45:50.328Z,82.83
2023-04-30T01:46:49.491Z,83.85
2023-04-30T01:47:49.234Z,84.47
2023-04-30T01:48:49.309Z,84.36
2023-04-30T01:49:50.429Z,82.22
2023-04-30T01:50:49.291Z,82.63
2023-04-30T01:51:49.210Z,82.53
2023-04-30T01:52:49.301Z,82.53
2023-04-30T01:53:49.182Z,82.83
2023-04-30T01:54:50.080Z,82.22
2023-04-30T01:55:50.203Z,81.91
2023-04-30T01:56:50.275Z,82.56
2023-04-30T01:57:49.309Z,82.97
2023-04-30T01:58:49.005Z,83.69
2023-04-30T01:59:50.214Z,83.54
2023-04-30T02:00:50.132Z,83.75
2023-04-30T02:01:50.378Z,83.95
2023-04-30T02:02:49.075Z,83.44
2023-04-30T02:03:50.366Z,84.06
2023-04-30T02:04:49.181Z,83.65
2023-04-30T02:05:49.198Z,83.34
2023-04-30T02:06:49.018Z,83.61
2023-04-30T02:07:49.123Z,82.79
2023-04-30T02:08:49.002Z,82.28
2023-04-30T02:09:48.880Z,83.00
2023-04-30T02:10:49.082Z,83.71
2023-04-30T02:11:49.882Z,84.53
2023-04-30T02:12:49.055Z,83.92
2023-04-30T02:13:48.853Z,83.30
2023-04-30T02:14:50.064Z,83.20
2023-04-30T02:15:48.944Z,82.18
2023-04-30T02:16:49.978Z,82.39
2023-04-30T02:17:49.899Z,82.89
2023-04-30T02:18:49.960Z,84.01
2023-04-30T02:19:49.878Z,84.01
2023-04-30T02:20:49.037Z,83.14
2023-04-30T02:21:49.886Z,83.34
2023-04-30T02:22:49.926Z,83.34
2023-04-30T02:23:48.837Z,83.04
2023-04-30T02:24:49.696Z,83.85
2023-04-30T02:25:48.885Z,84.26
2023-04-30T02:26:48.702Z,84.06
2023-04-30T02:27:48.837Z,83.69
2023-04-30T02:28:48.694Z,83.59
2023-04-30T02:29:48.867Z,84.00
2023-04-30T02:30:48.767Z,84.61
2023-04-30T02:31:48.881Z,85.12
2023-04-30T02:32:49.772Z,84.71
2023-04-30T02:33:48.806Z,84.61
2023-04-30T02:34:48.808Z,83.62
2023-04-30T02:35:48.834Z,83.32
2023-04-30T02:36:48.719Z,84.44
2023-04-30T02:37:48.825Z,84.79
2023-04-30T02:38:48.686Z,85.67
2023-04-30T02:39:48.795Z,85.06
2023-04-30T02:40:49.692Z,84.95
2023-04-30T02:41:49.672Z,84.85
2023-04-30T02:42:48.714Z,85.36
2023-04-30T02:43:48.599Z,84.69
2023-04-30T02:44:49.793Z,84.69
2023-04-30T02:45:49.594Z,84.69
2023-04-30T02:46:49.774Z,85.61
2023-04-30T02:47:49.592Z,85.91
2023-04-30T02:48:48.651Z,85.30
2023-04-30T02:49:49.535Z,85.71
2023-04-30T02:50:49.663Z,85.40
2023-04-30T02:51:48.587Z,85.30
2023-04-30T02:52:49.653Z,85.40
2023-04-30T02:53:49.872Z,85.20
2023-04-30T02:54:48.804Z,85.61
2023-04-30T02:55:50.064Z,85.81
2023-04-30T02:56:48.702Z,84.58
2023-04-30T02:57:48.550Z,84.69
2023-04-30T02:58:48.433Z,85.71
2023-04-30T02:59:49.528Z,86.02
2023-04-30T03:00:48.399Z,85.61
2023-04-30T03:01:49.687Z,85.40
2023-04-30T03:02:48.469Z,85.36
2023-04-30T03:03:49.504Z,85.26
2023-04-30T03:04:49.638Z,85.16
2023-04-30T03:05:49.450Z,84.75
2023-04-30T03:06:48.457Z,84.95
2023-04-30T03:07:49.501Z,84.95
2023-04-30T03:08:48.402Z,84.95
2023-04-30T03:09:48.452Z,85.06
2023-04-30T03:10:49.413Z,84.95
2023-04-30T03:11:48.264Z,84.85
2023-04-30T03:12:49.381Z,83.73
2023-04-30T03:13:49.184Z,84.34
2023-04-30T03:14:49.422Z,85.16
2023-04-30T03:15:48.212Z,85.77
2023-04-30T03:16:48.504Z,85.26
2023-04-30T03:17:49.228Z,85.57
2023-04-30T03:18:48.371Z,84.44
2023-04-30T03:19:49.214Z,84.85
2023-04-30T03:20:49.382Z,84.75
2023-04-30T03:21:48.214Z,84.95
2023-04-30T03:22:49.396Z,85.16
2023-04-30T03:23:48.205Z,84.75
2023-04-30T03:24:49.304Z,85.16
2023-04-30T03:25:48.186Z,85.94
2023-04-30T03:26:48.112Z,86.04
2023-04-30T03:27:49.299Z,85.22
2023-04-30T03:28:49.067Z,84.00
2023-04-30T03:29:48.267Z,83.79
2023-04-30T03:30:49.207Z,84.44
2023-04-30T03:31:48.394Z,84.44
2023-04-30T03:32:48.145Z,84.95
2023-04-30T03:33:49.324Z,85.06
2023-04-30T03:34:49.280Z,85.26
2023-04-30T03:35:49.427Z,84.24
2023-04-30T03:36:49.048Z,84.44
2023-04-30T03:37:49.312Z,84.41
2023-04-30T03:38:49.149Z,84.71
2023-04-30T03:39:49.351Z,84.09
2023-04-30T03:40:48.048Z,84.20
2023-04-30T03:41:48.167Z,83.59
2023-04-30T03:42:51.219Z,83.69
2023-04-30T03:43:47.935Z,83.83
2023-04-30T03:44:48.088Z,83.93
2023-04-30T03:45:48.963Z,83.22
2023-04-30T03:46:49.060Z,83.52
2023-04-30T03:47:49.075Z,83.62
2023-04-30T03:48:49.165Z,83.62
2023-04-30T03:49:47.880Z,83.73
2023-04-30T03:50:47.994Z,83.46
2023-04-30T03:51:48.007Z,84.28
2023-04-30T03:52:48.046Z,84.79
2023-04-30T03:53:48.934Z,84.69
2023-04-30T03:54:47.965Z,83.76
2023-04-30T03:55:48.890Z,84.07
2023-04-30T03:56:47.963Z,84.17
2023-04-30T03:57:48.983Z,84.07
2023-04-30T03:58:48.811Z,84.79
2023-04-30T03:59:47.963Z,84.28
2023-04-30T04:00:48.740Z,84.58
2023-04-30T04:01:49.037Z,85.30
2023-04-30T04:02:48.832Z,85.16
2023-04-30T04:03:49.001Z,85.06
2023-04-30T04:04:48.765Z,84.81
2023-04-30T04:05:48.952Z,83.89
2023-04-30T04:06:48.790Z,83.59
2023-04-30T04:07:48.938Z,83.28
2023-04-30T04:08:48.751Z,82.63
2023-04-30T04:09:48.893Z,82.73
2023-04-30T04:10:47.727Z,82.53
2023-04-30T04:11:48.852Z,82.05
2023-04-30T04:12:47.764Z,82.60
2023-04-30T04:13:47.592Z,84.09
2023-04-30T04:14:47.732Z,83.69
2023-04-30T04:15:48.634Z,83.07
2023-04-30T04:16:48.739Z,83.44
2023-04-30T04:17:47.661Z,83.14
2023-04-30T04:18:47.761Z,83.65
2023-04-30T04:19:48.663Z,83.65
2023-04-30T04:20:47.703Z,82.32
2023-04-30T04:21:48.574Z,82.69
2023-04-30T04:22:48.760Z,83.30
2023-04-30T04:23:48.639Z,83.00
2023-04-30T04:24:47.694Z,82.08
2023-04-30T04:25:48.638Z,81.57
2023-04-30T04:26:48.199Z,81.46
2023-04-30T04:27:48.712Z,81.05
2023-04-30T04:28:47.647Z,80.96
2023-04-30T04:29:47.591Z,81.98
2023-04-30T04:30:47.421Z,81.84
2023-04-30T04:31:47.677Z,82.04
2023-04-30T04:32:47.486Z,82.65
2023-04-30T04:33:47.596Z,81.32
2023-04-30T04:34:47.419Z,82.14
2023-04-30T04:35:47.607Z,81.73
2023-04-30T04:36:48.389Z,80.82
2023-04-30T04:37:48.515Z,81.32
2023-04-30T04:38:48.473Z,82.35
2023-04-30T04:39:48.549Z,81.32
2023-04-30T04:40:48.387Z,81.09
2023-04-30T04:41:48.558Z,81.49
2023-04-30T04:42:48.428Z,81.18
2023-04-30T04:43:48.758Z,81.49
2023-04-30T04:44:47.414Z,81.18
2023-04-30T04:45:47.300Z,80.98
2023-04-30T04:46:48.559Z,80.27
2023-04-30T04:47:48.326Z,81.09
2023-04-30T04:48:47.499Z,80.57
2023-04-30T04:49:47.358Z,80.54
2023-04-30T04:50:47.432Z,80.74
2023-04-30T04:51:48.292Z,80.94
2023-04-30T04:52:48.388Z,80.70
2023-04-30T04:53:48.316Z,80.70
2023-04-30T04:54:47.401Z,79.85
2023-04-30T04:55:48.268Z,79.81
2023-04-30T04:56:47.347Z,80.32
2023-04-30T04:57:47.307Z,79.68
2023-04-30T04:58:48.431Z,78.66
2023-04-30T04:59:48.286Z,78.21
2023-04-30T05:00:47.139Z,77.64
2023-04-30T05:01:47.280Z,78.15
2023-04-30T05:02:47.137Z,79.10
2023-04-30T05:03:47.495Z,79.61
2023-04-30T05:04:48.124Z,79.41
2023-04-30T05:05:48.278Z,79.71
2023-04-30T05:06:48.239Z,79.57
2023-04-30T05:07:47.236Z,79.27
2023-04-30T05:08:47.201Z,79.16
2023-04-30T05:09:47.277Z,78.45
2023-04-30T05:10:48.108Z,79.10
2023-04-30T05:11:47.150Z,79.71
2023-04-30T05:12:48.178Z,79.68
2023-04-30T05:13:47.258Z,79.27
2023-04-30T05:14:47.257Z,78.86
2023-04-30T05:15:46.987Z,78.86
2023-04-30T05:16:47.210Z,78.96
2023-04-30T05:17:47.012Z,78.82
2023-04-30T05:18:47.154Z,78.89
2023-04-30T05:19:47.966Z,77.97
2023-04-30T05:20:48.108Z,77.33
2023-04-30T05:21:46.900Z,77.02
2023-04-30T05:22:47.137Z,76.51
2023-04-30T05:23:47.017Z,76.17
2023-04-30T05:24:47.258Z,76.03
2023-04-30T05:25:46.938Z,76.54
2023-04-30T05:26:47.068Z,75.52
2023-04-30T05:27:46.988Z,74.88
2023-04-30T05:28:47.119Z,74.41
2023-04-30T05:29:47.010Z,74.82
2023-04-30T05:30:46.780Z,74.75
2023-04-30T05:31:47.009Z,74.95
2023-04-30T05:32:46.814Z,75.26
2023-04-30T05:33:46.942Z,74.95
2023-04-30T05:34:46.875Z,75.32
2023-04-30T05:35:47.066Z,74.07
2023-04-30T05:36:46.828Z,74.04
2023-04-30T05:37:46.974Z,72.04
2023-04-30T05:38:46.792Z,71.00
2023-04-30T05:39:46.964Z,70.36
2023-04-30T05:40:46.826Z,70.52
2023-04-30T05:41:46.860Z,68.50
2023-04-30T05:42:46.757Z,68.63
2023-04-30T05:43:46.826Z,67.90
2023-04-30T05:44:46.859Z,66.08
2023-04-30T05:45:47.078Z,65.98
2023-04-30T05:46:46.765Z,65.24
2023-04-30T05:47:46.646Z,65.95
2023-04-30T05:48:47.793Z,66.75
2023-04-30T05:49:47.690Z,66.15
2023-04-30T05:50:47.828Z,65.98
2023-04-30T05:54:05.850Z,65.14
2023-04-30T05:54:11.400Z,68.57
2023-04-30T05:55:12.151Z,66.15
2023-04-30T05:56:11.901Z,67.86
2023-04-30T05:57:12.128Z,64.94
2023-04-30T05:58:11.933Z,67.09
2023-04-30T05:59:13.082Z,66.61
2023-04-30T06:00:11.895Z,66.82
2023-04-30T06:01:12.060Z,67.63
2023-04-30T06:02:13.180Z,67.97
2023-04-30T06:03:13.120Z,66.32
2023-04-30T06:04:12.098Z,64.37
2023-04-30T06:05:14.634Z,65.92
2023-04-30T06:06:13.000Z,63.47
2023-04-30T06:07:13.082Z,63.27
2023-04-30T06:08:11.911Z,63.37
2023-04-30T06:09:11.975Z,64.48
2023-04-30T06:10:12.903Z,65.39
2023-04-30T06:11:11.942Z,64.78
2023-04-30T06:12:13.162Z,63.37
2023-04-30T06:13:12.806Z,63.70
2023-04-30T06:14:13.076Z,63.23
2023-04-30T06:15:12.724Z,64.34
2023-04-30T06:16:12.457Z,65.38
2023-04-30T06:17:11.973Z,63.36
2023-04-30T06:18:12.953Z,62.18
2023-04-30T06:19:12.883Z,62.88
2023-04-30T06:20:13.035Z,64.40
2023-04-30T06:21:11.729Z,66.12
2023-04-30T06:22:12.892Z,64.61
2023-04-30T06:23:11.768Z,64.81
2023-04-30T06:24:11.862Z,65.78
2023-04-30T06:25:12.770Z,64.70
2023-04-30T06:26:12.624Z,64.13
2023-04-30T06:27:11.851Z,64.94
2023-04-30T06:28:12.614Z,65.44
2023-04-30T06:29:12.753Z,64.73
2023-04-30T06:30:12.572Z,65.64
2023-04-30T06:31:11.763Z,64.06
2023-04-30T06:32:11.563Z,64.76
2023-04-30T06:33:11.739Z,64.06
2023-04-30T06:34:11.613Z,65.07
2023-04-30T06:35:11.724Z,65.98
2023-04-30T06:36:12.633Z,65.57
2023-04-30T06:37:12.702Z,64.16
2023-04-30T06:38:11.621Z,65.47
2023-04-30T06:39:11.733Z,66.86
2023-04-30T06:40:11.566Z,66.82
2023-04-30T06:41:11.686Z,64.30
2023-04-30T06:42:12.593Z,63.56
2023-04-30T06:43:11.566Z,62.15
2023-04-30T06:44:11.922Z,61.75
2023-04-30T06:45:11.567Z,62.63
2023-04-30T06:46:12.625Z,61.92
2023-04-30T06:47:12.465Z,62.65
2023-04-30T06:48:11.607Z,62.05
2023-04-30T06:49:11.531Z,60.77
2023-04-30T06:50:11.691Z,61.85
2023-04-30T06:51:12.464Z,61.85
2023-04-30T06:52:11.571Z,60.41
2023-04-30T06:53:11.463Z,61.79
2023-04-30T06:54:12.579Z,62.40
2023-04-30T06:55:12.505Z,61.79
2023-04-30T06:56:12.473Z,60.48
2023-04-30T06:57:11.613Z,62.32
2023-04-30T06:58:12.446Z,62.52
2023-04-30T06:59:11.862Z,62.55
2023-04-30T07:00:11.866Z,61.65
2023-04-30T07:01:11.500Z,61.85
2023-04-30T07:02:11.365Z,61.04
2023-04-30T07:03:11.601Z,61.41
2023-04-30T07:04:12.278Z,61.11
2023-04-30T07:05:12.522Z,61.14
2023-04-30T07:06:12.346Z,61.95
2023-04-30T07:07:12.405Z,61.35
2023-04-30T07:08:11.460Z,61.72
2023-04-30T07:09:11.408Z,62.12
2023-04-30T07:10:11.438Z,60.53
2023-04-30T07:11:11.669Z,62.43
2023-04-30T07:12:12.331Z,60.28
2023-04-30T07:13:11.253Z,59.75
2023-04-30T07:14:11.539Z,61.08
2023-04-30T07:15:11.113Z,61.63
2023-04-30T07:16:12.381Z,57.82
2023-04-30T07:17:12.088Z,56.51
2023-04-30T07:18:11.627Z,59.16
2023-04-30T07:19:11.181Z,59.06
2023-04-30T07:20:12.282Z,57.12
2023-04-30T07:21:12.169Z,56.80
2023-04-30T07:22:12.222Z,59.55
2023-04-30T07:23:12.097Z,60.15
2023-04-30T07:24:12.193Z,59.17
2023-04-30T07:25:12.149Z,59.84
2023-04-30T07:26:11.267Z,58.47
2023-04-30T07:27:12.138Z,59.09
2023-04-30T07:28:11.973Z,59.40
2023-04-30T07:29:12.161Z,60.36
2023-04-30T07:30:12.040Z,60.87
2023-04-30T07:31:11.136Z,60.69
2023-04-30T07:32:11.038Z,60.87
2023-04-30T07:33:11.120Z,60.77
2023-04-30T07:34:11.086Z,61.88
2023-04-30T07:35:12.140Z,61.27
2023-04-30T07:36:12.038Z,61.80
2023-04-30T07:37:12.082Z,62.48
2023-04-30T07:38:11.975Z,60.80
2023-04-30T07:39:12.086Z,61.71
2023-04-30T07:40:11.286Z,61.37
2023-04-30T07:41:12.058Z,60.80
2023-04-30T07:42:10.994Z,62.95
2023-04-30T07:43:10.760Z,62.54
2023-04-30T07:44:10.971Z,62.47
2023-04-30T07:45:10.772Z,63.28
2023-04-30T07:46:11.099Z,63.78
2023-04-30T07:47:10.769Z,63.89
2023-04-30T07:48:11.224Z,64.70
2023-04-30T07:49:11.820Z,63.05
2023-04-30T07:50:10.932Z,62.85
2023-04-30T07:51:10.852Z,63.62
2023-04-30T07:52:10.936Z,61.83
2023-04-30T07:53:10.825Z,64.76
2023-04-30T07:54:11.037Z,64.61
2023-04-30T07:55:10.844Z,63.49
2023-04-30T07:56:11.980Z,62.15
2023-04-30T07:57:10.865Z,63.33
2023-04-30T07:58:10.938Z,61.41
2023-04-30T07:59:10.800Z,61.82
2023-04-30T08:00:10.604Z,63.13
2023-04-30T08:01:10.816Z,61.01
2023-04-30T08:02:10.755Z,63.03
2023-04-30T08:03:11.224Z,59.42
2023-04-30T08:04:10.854Z,60.87
2023-04-30T08:05:10.811Z,62.96
2023-04-30T08:06:10.666Z,62.25
2023-04-30T08:07:10.819Z,62.55
2023-04-30T08:08:10.638Z,61.77
2023-04-30T08:09:10.724Z,63.39
2023-04-30T08:10:11.605Z,62.45
2023-04-30T08:11:10.766Z,60.94
2023-04-30T08:12:10.721Z,62.28
2023-04-30T08:13:10.722Z,61.35
2023-04-30T08:14:09.885Z,60.84
2023-04-30T08:15:10.518Z,62.25
2023-04-30T08:16:10.678Z,59.83
2023-04-30T08:17:10.512Z,60.46
2023-04-30T08:18:10.733Z,60.80
2023-04-30T08:19:10.505Z,61.20
2023-04-30T08:20:10.676Z,62.01
2023-04-30T08:21:10.552Z,63.22
2023-04-30T08:22:10.747Z,63.39
2023-04-30T08:23:10.505Z,62.68
2023-04-30T08:24:10.643Z,62.48
2023-04-30T08:25:10.443Z,62.79
2023-04-30T08:26:10.587Z,62.79
2023-04-30T08:27:10.655Z,62.48
2023-04-30T08:28:10.576Z,62.59
2023-04-30T08:29:10.486Z,63.09
2023-04-30T08:30:10.340Z,62.51
2023-04-30T08:31:10.473Z,63.73
2023-04-30T08:32:10.408Z,63.09
2023-04-30T08:33:10.532Z,62.28
2023-04-30T08:34:10.366Z,62.28
2023-04-30T08:35:10.493Z,61.77
2023-04-30T08:36:10.349Z,63.39
2023-04-30T08:37:10.515Z,61.95
2023-04-30T08:38:10.331Z,62.15
2023-04-30T08:39:10.406Z,61.65
2023-04-30T08:40:10.293Z,60.00
2023-04-30T08:41:10.380Z,61.52
2023-04-30T08:42:10.356Z,60.21
2023-04-30T08:43:10.441Z,60.44
2023-04-30T08:44:10.389Z,59.33
2023-04-30T08:45:10.169Z,58.25
2023-04-30T08:46:10.349Z,59.56
2023-04-30T08:47:10.123Z,61.07
2023-04-30T08:48:10.403Z,60.36
2023-04-30T08:49:10.129Z,59.05
2023-04-30T08:50:10.339Z,59.05
2023-04-30T08:51:10.139Z,59.35
2023-04-30T08:52:10.344Z,61.04
2023-04-30T08:53:10.206Z,59.73
2023-04-30T08:54:10.559Z,59.56
2023-04-30T08:55:10.169Z,59.73
2023-04-30T08:56:10.272Z,58.92
2023-04-30T08:57:10.166Z,58.82
2023-04-30T08:58:10.315Z,60.64
2023-04-30T08:59:10.184Z,59.50
2023-04-30T09:00:10.071Z,58.16
2023-04-30T09:01:10.249Z,59.40
2023-04-30T09:02:10.076Z,58.39
2023-04-30T09:03:10.248Z,58.89
2023-04-30T09:04:10.136Z,57.78
2023-04-30T09:05:10.131Z,59.37
2023-04-30T09:06:10.191Z,57.73
2023-04-30T09:07:10.239Z,58.74
2023-04-30T09:08:09.981Z,57.23
2023-04-30T09:09:10.137Z,57.83
2023-04-30T09:10:10.097Z,56.70
2023-04-30T09:11:10.098Z,57.28
2023-04-30T09:12:10.033Z,57.04
2023-04-30T09:13:10.067Z,55.88
2023-04-30T09:14:09.996Z,54.15
2023-04-30T09:15:10.071Z,54.43
2023-04-30T09:16:10.047Z,54.07
2023-04-30T09:17:09.890Z,51.27
2023-04-30T09:18:10.104Z,50.70
2023-04-30T09:19:09.764Z,47.97
2023-04-30T09:20:10.092Z,47.39
2023-04-30T09:21:09.798Z,47.61
2023-04-30T09:22:10.017Z,49.54
2023-04-30T09:23:10.158Z,48.46
2023-04-30T09:24:10.728Z,49.49
2023-04-30T09:25:09.886Z,48.86
2023-04-30T09:26:09.999Z,51.36
2023-04-30T09:27:10.030Z,52.37
2023-04-30T09:28:09.898Z,53.34
2023-04-30T09:29:33.192Z,52.80
2023-04-30T09:30:10.066Z,52.17
2023-04-30T09:31:09.917Z,53.45
2023-04-30T09:32:09.690Z,50.49
2023-04-30T09:33:12.025Z,51.25
2023-04-30T09:34:09.687Z,49.04
2023-04-30T09:35:09.927Z,48.54
2023-04-30T09:36:09.766Z,49.66
2023-04-30T09:37:09.866Z,49.04
2023-04-30T09:38:09.710Z,48.94
2023-04-30T09:39:12.033Z,47.76
2023-04-30T09:40:09.852Z,47.94
2023-04-30T09:41:09.841Z,48.82
2023-04-30T09:42:09.723Z,47.22
2023-04-30T09:43:09.851Z,47.84
2023-04-30T09:44:09.820Z,48.24
2023-04-30T09:45:09.800Z,48.11
2023-04-30T09:46:09.621Z,47.87
2023-04-30T09:47:09.525Z,47.03
2023-04-30T09:48:17.004Z,44.37
2023-04-30T09:49:09.483Z,44.57
2023-04-30T09:50:09.679Z,43.05
2023-04-30T09:51:09.652Z,43.05
2023-04-30T09:52:09.743Z,43.79
2023-04-30T09:53:09.490Z,40.98
2023-04-30T09:54:09.642Z,42.65
2023-04-30T09:55:09.553Z,39.72
2023-04-30T09:56:09.645Z,42.73
2023-04-30T09:57:09.557Z,44.31
2023-04-30T09:58:09.645Z,41.67
2023-04-30T09:59:10.493Z,43.50
2023-04-30T10:00:09.594Z,41.28
2023-04-30T10:01:09.496Z,40.78
2023-04-30T10:02:09.382Z,38.24
2023-04-30T10:03:09.583Z,41.30
2023-04-30T10:04:10.356Z,43.03
2023-04-30T10:05:09.554Z,44.60
2023-04-30T10:06:10.497Z,43.07
2023-04-30T10:07:09.619Z,46.19
2023-04-30T10:08:10.363Z,48.07
2023-04-30T10:09:10.512Z,49.19
2023-04-30T10:10:10.384Z,51.51
2023-04-30T10:11:10.499Z,51.06
2023-04-30T10:12:10.385Z,52.49
2023-04-30T10:13:10.507Z,52.82
2023-04-30T10:14:10.386Z,52.55
2023-04-30T10:15:10.562Z,53.57
2023-04-30T10:16:09.394Z,55.76
2023-04-30T10:17:10.411Z,54.25
2023-04-30T10:18:10.568Z,52.84
2023-04-30T10:19:10.272Z,52.84
2023-04-30T10:20:10.356Z,52.37
2023-04-30T10:21:09.191Z,53.30
2023-04-30T10:22:10.481Z,51.89
2023-04-30T10:23:10.212Z,50.89
2023-04-30T10:24:09.592Z,52.49
2023-04-30T10:25:10.265Z,53.09
2023-04-30T10:26:10.412Z,52.77
2023-04-30T10:27:10.312Z,50.28
2023-04-30T10:28:09.284Z,53.00
2023-04-30T10:29:10.220Z,52.49
2023-04-30T10:30:10.197Z,54.30
2023-04-30T10:31:10.243Z,52.37
2023-04-30T10:32:10.325Z,50.66
2023-04-30T10:33:10.226Z,52.01
2023-04-30T10:34:10.031Z,47.77
2023-04-30T10:35:10.195Z,49.36
2023-04-30T10:36:10.161Z,48.49
2023-04-30T10:37:09.234Z,48.61
2023-04-30T10:38:10.060Z,46.77
2023-04-30T10:39:10.231Z,44.61
2023-04-30T10:40:10.016Z,44.49
2023-04-30T10:41:09.111Z,42.59
2023-04-30T10:42:10.134Z,43.41
2023-04-30T10:43:10.143Z,42.91
2023-04-30T10:44:10.022Z,44.31
2023-04-30T10:45:10.130Z,44.38
2023-04-30T10:46:10.090Z,42.41
2023-04-30T10:47:10.121Z,44.13
2023-04-30T10:48:10.197Z,45.07
2023-04-30T10:49:09.932Z,46.19
2023-04-30T10:50:09.258Z,44.82
2023-04-30T10:51:08.848Z,45.84
2023-04-30T10:52:10.004Z,46.26
2023-04-30T10:53:09.882Z,47.06
2023-04-30T10:54:09.012Z,47.88
2023-04-30T10:55:08.876Z,47.93
2023-04-30T10:56:09.771Z,48.98
2023-04-30T10:57:09.891Z,50.41
2023-04-30T10:58:08.922Z,51.59
2023-04-30T10:59:08.872Z,51.49
2023-04-30T11:00:09.034Z,52.42
2023-04-30T11:01:09.951Z,51.94
2023-04-30T11:02:10.009Z,51.06
2023-04-30T11:03:10.084Z,51.36
2023-04-30T11:04:09.701Z,51.97
2023-04-30T11:05:09.862Z,52.87
2023-04-30T11:06:09.865Z,52.80
2023-04-30T11:07:09.909Z,53.40
2023-04-30T11:08:09.683Z,51.99
2023-04-30T11:09:09.912Z,52.51
2023-04-30T11:10:09.736Z,53.32
2023-04-30T11:11:09.922Z,52.72
2023-04-30T11:12:09.762Z,51.84
2023-04-30T11:13:09.964Z,53.85
2023-04-30T11:14:09.748Z,53.67
2023-04-30T11:15:09.823Z,52.67
2023-04-30T11:16:10.062Z,54.18
2023-04-30T11:17:10.002Z,54.18
2023-04-30T11:18:09.904Z,53.27
2023-04-30T11:19:11.277Z,53.47
2023-04-30T11:20:10.446Z,53.58
2023-04-30T11:21:09.597Z,53.65
2023-04-30T11:22:09.912Z,53.95
2023-04-30T11:23:09.645Z,52.74
2023-04-30T11:24:09.976Z,54.55
2023-04-30T11:25:09.524Z,54.75
2023-04-30T11:26:09.958Z,53.63
2023-04-30T11:27:09.743Z,53.72
2023-04-30T11:28:08.744Z,53.34
2023-04-30T11:29:08.704Z,52.17
2023-04-30T11:30:09.687Z,52.97
2023-04-30T11:31:09.714Z,53.78
2023-04-30T11:32:09.645Z,52.87
2023-04-30T11:33:09.578Z,53.07
2023-04-30T11:34:09.666Z,53.17
2023-04-30T11:35:09.604Z,52.39
2023-04-30T11:36:09.408Z,54.28
2023-04-30T11:37:09.544Z,52.87
2023-04-30T11:38:09.803Z,52.87
2023-04-30T11:39:09.654Z,54.15
2023-04-30T11:40:09.414Z,53.95
2023-04-30T11:41:09.561Z,53.45
2023-04-30T11:42:09.404Z,52.87
2023-04-30T11:43:09.590Z,52.24
2023-04-30T11:44:09.594Z,51.54
2023-04-30T11:45:09.548Z,51.54
2023-04-30T11:46:09.606Z,52.94
2023-04-30T11:47:09.566Z,52.72
2023-04-30T11:48:09.468Z,52.22
2023-04-30T11:49:09.468Z,52.89
2023-04-30T11:50:09.426Z,51.66
2023-04-30T11:51:09.286Z,52.26
2023-04-30T11:52:09.446Z,50.63
2023-04-30T11:53:09.285Z,51.94
2023-04-30T11:54:09.404Z,50.13
2023-04-30T11:55:09.358Z,49.53
2023-04-30T11:56:09.459Z,49.25
2023-04-30T11:57:09.334Z,48.95
2023-04-30T11:58:09.415Z,50.98
2023-04-30T11:59:09.315Z,49.88
2023-04-30T12:00:09.372Z,51.59
2023-04-30T12:01:09.787Z,50.26
2023-04-30T12:02:11.603Z,52.17
2023-04-30T12:03:09.363Z,52.80
2023-04-30T12:04:09.686Z,51.76
2023-04-30T12:05:08.205Z,50.96
2023-04-30T12:06:08.132Z,52.59
2023-04-30T12:07:09.348Z,52.09
2023-04-30T12:08:09.189Z,52.09
2023-04-30T12:09:09.313Z,51.06
2023-04-30T12:10:09.226Z,48.65
2023-04-30T12:11:09.736Z,49.76
2023-04-30T12:12:08.605Z,50.23
2023-04-30T12:13:09.203Z,51.06
2023-04-30T12:14:09.243Z,48.67
2023-04-30T12:15:09.302Z,49.85
2023-04-30T12:16:08.286Z,50.86
2023-04-30T12:17:09.274Z,51.86
2023-04-30T12:18:09.398Z,51.16
2023-04-30T12:19:09.794Z,50.33
2023-04-30T12:20:09.491Z,50.51
2023-04-30T12:21:09.454Z,50.51
2023-04-30T12:22:09.284Z,51.09
2023-04-30T12:23:09.015Z,51.26
2023-04-30T12:24:09.165Z,49.46
2023-04-30T12:25:09.441Z,49.86
2023-04-30T12:26:09.056Z,48.68
2023-04-30T12:27:09.017Z,50.48
2023-04-30T12:28:09.072Z,49.30
2023-04-30T12:29:08.956Z,49.01
2023-04-30T12:30:09.167Z,49.21
2023-04-30T12:31:09.116Z,48.90
2023-04-30T12:32:09.063Z,49.10
2023-04-30T12:33:08.926Z,49.98
2023-04-30T12:34:09.025Z,47.67
2023-04-30T12:35:09.248Z,48.80
2023-04-30T12:36:09.295Z,48.40
2023-04-30T12:37:08.923Z,48.40
2023-04-30T12:38:08.724Z,48.10
2023-04-30T12:39:08.898Z,50.21
2023-04-30T12:40:09.073Z,49.21
2023-04-30T12:41:09.412Z,48.00
2023-04-30T12:42:08.756Z,46.49
2023-04-30T12:43:08.981Z,47.30
2023-04-30T12:44:08.860Z,47.60
2023-04-30T12:45:08.192Z,50.41
2023-04-30T12:46:08.887Z,49.01
2023-04-30T12:47:08.905Z,48.80
2023-04-30T12:48:08.853Z,48.32
2023-04-30T12:49:08.957Z,48.85
2023-04-30T12:50:08.966Z,49.02
2023-04-30T12:51:08.824Z,47.92
2023-04-30T12:52:08.741Z,47.02
2023-04-30T12:53:08.555Z,47.22
2023-04-30T12:54:07.983Z,46.92